createdAt,value
2023-02-12T00:01:39.791Z,28.90
2023-02-12T00:04:07.750Z,30.40
2023-02-12T00:06:35.824Z,31.30
2023-02-12T00:09:03.721Z,29.20
2023-02-12T00:11:31.540Z,26.20
2023-02-12T00:13:59.431Z,27.10
2023-02-12T00:16:29.203Z,25.50
2023-02-12T00:18:58.596Z,23.80
2023-02-12T00:21:26.830Z,21.00
2023-02-12T00:23:54.876Z,26.10
2023-02-12T00:26:23.770Z,24.40
2023-02-12T00:28:52.353Z,28.00
2023-02-12T00:31:28.858Z,29.70
2023-02-12T00:33:59.374Z,24.80
2023-02-12T00:36:30.416Z,25.50
2023-02-12T00:38:58.881Z,20.40
2023-02-12T00:41:27.368Z,20.20
2023-02-12T00:43:55.171Z,22.10
2023-02-12T00:46:23.784Z,21.50
2023-02-12T00:48:52.077Z,23.70
2023-02-12T00:51:19.935Z,26.40
2023-02-12T00:53:47.908Z,20.30
2023-02-12T00:56:15.974Z,19.50
2023-02-12T00:58:44.352Z,19.10
2023-02-12T01:01:12.365Z,17.90
2023-02-12T01:03:40.394Z,19.30
2023-02-12T01:06:08.263Z,17.70
2023-02-12T01:08:36.058Z,17.00
2023-02-12T01:11:06.305Z,16.80
2023-02-12T01:13:35.249Z,16.90
2023-02-12T01:16:15.473Z,17.50
2023-02-12T01:18:43.776Z,17.40
2023-02-12T01:21:17.981Z,17.20
2023-02-12T01:23:46.972Z,16.20
2023-02-12T01:26:17.271Z,16.20
2023-02-12T01:28:51.168Z,16.90
2023-02-12T01:31:22.749Z,16.30
2023-02-12T01:33:53.543Z,17.00
2023-02-12T01:36:22.281Z,19.10
2023-02-12T01:38:50.977Z,18.90
2023-02-12T01:41:24.676Z,21.30
2023-02-12T01:46:40.903Z,20.70
2023-02-12T01:49:15.444Z,33.70
2023-02-12T01:51:46.307Z,27.10
2023-02-12T01:54:17.789Z,21.60
2023-02-12T01:56:46.378Z,21.90
2023-02-12T01:59:14.348Z,20.00
2023-02-12T02:01:42.267Z,18.30
2023-02-12T02:04:17.972Z,19.80
2023-02-12T02:07:04.369Z,20.50
2023-02-12T02:09:36.318Z,20.30
2023-02-12T02:12:23.332Z,19.50
2023-02-12T02:14:54.895Z,21.30
2023-02-12T02:18:01.147Z,18.90
2023-02-12T02:21:04.955Z,19.00
2023-02-12T02:23:51.593Z,20.30
2023-02-12T02:26:43.902Z,23.20
2023-02-12T02:29:43.321Z,19.40
2023-02-12T02:32:29.594Z,17.70
2023-02-12T02:35:27.303Z,16.20
2023-02-12T02:38:23.401Z,16.60
2023-02-12T02:41:02.148Z,15.20
2023-02-12T02:43:36.785Z,16.50
2023-02-12T02:46:14.478Z,14.50
2023-02-12T02:48:48.366Z,15.20
2023-02-12T02:51:22.286Z,16.30
2023-02-12T02:54:11.904Z,15.50
2023-02-12T02:56:43.044Z,15.80
2023-02-12T02:59:20.789Z,18.20
2023-02-12T03:01:58.485Z,18.70
2023-02-12T03:04:33.821Z,16.20
2023-02-12T03:07:13.759Z,17.50
2023-02-12T03:09:50.236Z,21.00
2023-02-12T03:12:35.055Z,21.20
2023-02-12T03:15:09.961Z,18.90
2023-02-12T03:17:49.378Z,17.50
2023-02-12T03:20:21.980Z,13.50
2023-02-12T03:22:58.559Z,14.50
2023-02-12T03:25:40.840Z,15.10
2023-02-12T03:28:20.595Z,13.00
2023-02-12T03:30:52.753Z,13.50
2023-02-12T03:33:54.946Z,13.60
2023-02-12T03:36:46.603Z,13.50
2023-02-12T03:39:33.639Z,16.80
2023-02-12T03:42:07.288Z,15.10
2023-02-12T03:47:38.380Z,13.30
2023-02-12T03:50:38.419Z,13.60
2023-02-12T03:53:07.314Z,8.30
2023-02-12T03:55:39.172Z,5.10
2023-02-12T03:58:10.953Z,5.10
2023-02-12T04:00:40.013Z,4.40
2023-02-12T04:03:08.081Z,4.40
2023-02-12T04:05:35.941Z,4.30
2023-02-12T04:08:07.800Z,3.90
2023-02-12T04:11:20.838Z,4.50
2023-02-12T04:13:56.004Z,4.10
2023-02-12T04:16:33.092Z,4.70
2023-02-12T04:19:01.863Z,4.10
2023-02-12T04:22:05.636Z,3.40
2023-02-12T04:24:39.246Z,4.40
2023-02-12T04:27:29.611Z,4.20
2023-02-12T04:30:18.354Z,4.30
2023-02-12T04:33:09.807Z,3.50
2023-02-12T04:35:51.427Z,3.80
2023-02-12T04:38:25.327Z,4.00
2023-02-12T04:40:53.886Z,3.90
2023-02-12T04:43:36.974Z,3.60
2023-02-12T04:46:07.924Z,3.40
2023-02-12T04:48:51.089Z,4.30
2023-02-12T04:51:18.937Z,5.30
2023-02-12T04:53:47.113Z,4.90
2023-02-12T04:56:16.107Z,4.00
2023-02-12T04:58:44.076Z,3.80
2023-02-12T05:01:12.780Z,4.60
2023-02-12T05:03:41.033Z,4.20
2023-02-12T05:06:09.594Z,4.90
2023-02-12T05:08:37.378Z,5.10
2023-02-12T05:11:10.425Z,4.10
2023-02-12T05:13:39.120Z,4.10
2023-02-12T05:16:08.762Z,5.30
2023-02-12T05:18:36.728Z,4.80
2023-02-12T05:21:05.742Z,4.80
2023-02-12T05:23:37.118Z,7.90
2023-02-12T05:26:08.346Z,6.60
2023-02-12T05:28:37.265Z,5.60
2023-02-12T05:31:08.677Z,4.80
2023-02-12T05:33:36.763Z,5.80
2023-02-12T05:36:10.609Z,5.80
2023-02-12T05:38:39.291Z,5.20
2023-02-12T05:41:16.357Z,4.80
2023-02-12T05:43:46.531Z,4.50
2023-02-12T05:46:15.963Z,4.70
2023-02-12T05:48:44.420Z,4.80
2023-02-12T05:51:15.971Z,4.90
2023-02-12T05:53:43.830Z,4.10
2023-02-12T05:56:16.495Z,11.00
2023-02-12T05:58:48.160Z,9.30
2023-02-12T06:01:22.962Z,6.10
2023-02-12T06:03:50.785Z,4.70
2023-02-12T06:06:18.924Z,4.90
2023-02-12T06:08:51.079Z,5.00
2023-02-12T06:11:20.994Z,5.00
2023-02-12T06:13:49.677Z,4.40
2023-02-12T06:16:24.072Z,5.10
2023-02-12T06:18:53.916Z,5.70
2023-02-12T06:21:24.287Z,4.90
2023-02-12T06:23:53.306Z,4.50
2023-02-12T06:26:21.938Z,4.90
2023-02-12T06:28:50.255Z,4.70
2023-02-12T06:31:22.083Z,5.10
2023-02-12T06:33:51.649Z,5.80
2023-02-12T06:36:19.858Z,4.70
2023-02-12T06:38:48.445Z,4.40
2023-02-12T06:41:16.422Z,3.80
2023-02-12T06:43:44.552Z,3.40
2023-02-12T06:46:13.483Z,4.20
2023-02-12T06:48:42.313Z,5.00
2023-02-12T06:51:13.082Z,4.20
2023-02-12T06:53:41.338Z,3.90
2023-02-12T06:56:11.760Z,3.80
2023-02-12T06:58:41.804Z,3.90
2023-02-12T07:01:21.666Z,4.10
2023-02-12T07:03:56.372Z,4.50
2023-02-12T07:06:25.586Z,4.00
2023-02-12T07:08:55.150Z,4.00
2023-02-12T07:11:29.292Z,4.20
2023-02-12T07:13:58.262Z,4.30
2023-02-12T07:16:26.957Z,4.50
2023-02-12T07:18:55.621Z,3.70
2023-02-12T07:21:23.698Z,3.90
2023-02-12T07:23:52.988Z,4.80
2023-02-12T07:26:22.306Z,4.90
2023-02-12T07:28:51.310Z,3.90
2023-02-12T07:31:23.738Z,17.40
2023-02-12T07:33:56.914Z,7.80
2023-02-12T07:36:26.783Z,4.60
2023-02-12T07:38:56.259Z,4.70
2023-02-12T07:41:29.681Z,9.50
2023-02-12T07:44:07.460Z,14.90
2023-02-12T07:46:38.476Z,8.30
2023-02-12T07:49:08.521Z,15.20
2023-02-12T07:51:37.784Z,10.80
2023-02-12T07:54:06.019Z,14.20
2023-02-12T07:56:37.694Z,5.10
2023-02-12T07:59:08.591Z,4.90
2023-02-12T08:01:39.086Z,13.20
2023-02-12T08:04:13.484Z,4.50
2023-02-12T08:06:44.412Z,4.30
2023-02-12T08:09:15.508Z,3.90
2023-02-12T08:11:44.213Z,3.50
2023-02-12T08:14:15.052Z,4.00
2023-02-12T08:16:44.388Z,5.70
2023-02-12T08:19:20.971Z,5.50
2023-02-12T08:21:51.536Z,5.60
2023-02-12T08:24:20.062Z,8.10
2023-02-12T08:26:48.632Z,4.90
2023-02-12T08:29:19.495Z,5.00
2023-02-12T08:31:50.119Z,11.20
2023-02-12T08:34:30.293Z,19.60
2023-02-12T08:36:59.180Z,27.70
2023-02-12T08:39:29.247Z,12.30
2023-02-12T08:41:58.531Z,7.00
2023-02-12T08:44:27.041Z,19.50
2023-02-12T08:46:55.840Z,39.60
2023-02-12T08:49:27.016Z,37.00
2023-02-12T08:51:57.665Z,11.10
2023-02-12T08:54:28.184Z,16.60
2023-02-12T08:56:58.215Z,20.10
2023-02-12T08:59:26.803Z,17.30
2023-02-12T09:01:55.480Z,12.00
2023-02-12T09:04:25.876Z,10.70
2023-02-12T09:06:54.287Z,11.80
2023-02-12T09:09:22.764Z,29.30
2023-02-12T09:11:50.859Z,9.40
2023-02-12T09:14:24.113Z,20.60
2023-02-12T09:16:53.767Z,8.50
2023-02-12T09:19:22.426Z,10.00
2023-02-12T09:21:56.274Z,11.60
2023-02-12T09:24:27.766Z,7.00
2023-02-12T09:26:56.665Z,4.00
2023-02-12T09:29:24.736Z,3.90
2023-02-12T09:31:53.151Z,3.40
2023-02-12T09:34:21.109Z,11.80
2023-02-12T09:36:49.008Z,8.50
2023-02-12T09:39:17.432Z,5.40
2023-02-12T09:42:28.368Z,10.70
2023-02-12T09:45:20.334Z,11.10
2023-02-12T09:48:11.797Z,7.70
2023-02-12T09:50:52.135Z,6.90
2023-02-12T09:53:24.908Z,12.50
2023-02-12T09:55:52.699Z,10.60
2023-02-12T09:58:24.900Z,6.70
2023-02-12T10:00:53.006Z,9.30
2023-02-12T10:03:22.577Z,8.20
2023-02-12T10:06:06.009Z,5.40
2023-02-12T10:09:05.064Z,4.90
2023-02-12T10:12:03.726Z,7.20
2023-02-12T10:15:13.167Z,7.70
2023-02-12T10:17:51.709Z,9.40
2023-02-12T10:20:50.778Z,7.40
2023-02-12T10:23:18.681Z,5.30
2023-02-12T10:26:00.653Z,5.80
2023-02-12T10:28:38.461Z,8.00
2023-02-12T10:31:15.462Z,6.30
2023-02-12T10:33:49.529Z,6.50
2023-02-12T10:36:31.962Z,5.20
2023-02-12T10:39:14.479Z,7.60
2023-02-12T10:41:47.866Z,9.30
2023-02-12T10:44:16.086Z,6.50
2023-02-12T10:46:44.396Z,9.50
2023-02-12T10:49:16.078Z,14.80
2023-02-12T10:51:56.818Z,14.80
2023-02-12T10:54:45.842Z,12.00
2023-02-12T10:57:17.516Z,23.50
2023-02-12T10:59:48.628Z,27.60
2023-02-12T11:02:19.384Z,28.10
2023-02-12T11:04:47.591Z,14.60
2023-02-12T11:07:16.564Z,7.40
2023-02-12T11:09:50.306Z,22.30
2023-02-12T11:12:37.794Z,16.90
2023-02-12T11:15:17.203Z,12.00
2023-02-12T11:17:55.377Z,10.10
2023-02-12T11:20:58.958Z,17.60
2023-02-12T11:23:27.208Z,7.40
2023-02-12T11:26:06.388Z,16.90
2023-02-12T11:28:36.892Z,10.90
2023-02-12T11:31:23.313Z,9.50
2023-02-12T11:34:10.580Z,7.60
2023-02-12T11:36:44.040Z,14.70
2023-02-12T11:39:23.062Z,6.80
2023-02-12T11:41:57.539Z,11.20
2023-02-12T11:44:29.234Z,8.70
2023-02-12T11:47:09.031Z,10.00
2023-02-12T11:49:44.476Z,14.10
2023-02-12T11:52:20.952Z,18.00
2023-02-12T11:54:51.053Z,15.30
2023-02-12T11:57:40.284Z,13.20
2023-02-12T12:00:28.509Z,14.50
2023-02-12T12:03:25.206Z,14.40
2023-02-12T12:05:58.022Z,18.40
2023-02-12T12:08:34.260Z,14.50
2023-02-12T12:11:12.821Z,17.80
2023-02-12T12:14:06.691Z,15.10
2023-02-12T12:17:02.247Z,12.50
2023-02-12T12:19:55.156Z,14.40
2023-02-12T12:22:46.120Z,17.90
2023-02-12T12:25:27.595Z,11.70
2023-02-12T12:28:33.843Z,9.50
2023-02-12T12:31:27.787Z,9.20
2023-02-12T12:36:51.791Z,7.40
2023-02-12T12:39:41.644Z,10.90
2023-02-12T12:42:36.477Z,8.10
2023-02-12T12:45:31.938Z,7.90
2023-02-12T12:48:08.890Z,10.70
2023-02-12T12:51:12.663Z,7.20
2023-02-12T12:54:02.786Z,8.90
2023-02-12T12:56:49.539Z,8.90
2023-02-12T12:59:27.434Z,9.70
2023-02-12T13:02:07.638Z,9.00
2023-02-12T13:05:02.153Z,9.90
2023-02-12T13:07:45.426Z,9.40
2023-02-12T13:10:28.637Z,8.70
2023-02-12T13:13:05.930Z,9.50
2023-02-12T13:15:46.044Z,8.90
2023-02-12T13:18:35.565Z,10.00
2023-02-12T13:21:06.314Z,12.00
2023-02-12T13:23:51.869Z,12.70
2023-02-12T13:26:30.811Z,11.80
2023-02-12T13:29:13.245Z,17.40
2023-02-12T13:31:49.469Z,10.90
2023-02-12T13:34:19.619Z,10.80
2023-02-12T13:36:50.082Z,7.70
2023-02-12T13:39:38.047Z,8.50
2023-02-12T13:42:23.794Z,7.70
2023-02-12T13:45:03.468Z,9.90
2023-02-12T13:47:58.078Z,6.60
2023-02-12T13:50:42.100Z,8.30
2023-02-12T13:56:27.960Z,13.90
2023-02-12T13:59:00.402Z,13.40
2023-02-12T14:01:49.994Z,7.90
2023-02-12T14:04:27.756Z,12.70
2023-02-12T14:07:01.533Z,10.90
2023-02-12T14:12:07.188Z,9.20
2023-02-12T14:14:42.966Z,8.60
2023-02-12T14:17:30.355Z,29.10
2023-02-12T14:20:27.450Z,15.70
2023-02-12T14:23:23.066Z,25.50
2023-02-12T14:26:11.534Z,36.40
2023-02-12T14:29:02.406Z,51.80
2023-02-12T14:31:33.136Z,42.50
2023-02-12T14:34:05.203Z,38.00
2023-02-12T14:36:41.270Z,30.70
2023-02-12T14:39:21.579Z,29.80
2023-02-12T14:41:54.966Z,42.60
2023-02-12T14:44:23.452Z,61.90
2023-02-12T14:47:17.639Z,26.50
2023-02-12T14:49:49.325Z,31.70
2023-02-12T14:52:24.242Z,34.90
2023-02-12T14:55:04.154Z,23.40
2023-02-12T14:57:40.326Z,19.60
2023-02-12T15:00:18.299Z,30.10
2023-02-12T15:03:25.658Z,18.00
2023-02-12T15:06:04.970Z,17.60
2023-02-12T15:08:52.576Z,20.00
2023-02-12T15:11:31.259Z,45.70
2023-02-12T15:14:31.206Z,47.60
2023-02-12T15:17:15.370Z,48.60
2023-02-12T15:19:45.057Z,38.10
2023-02-12T15:22:29.770Z,26.20
2023-02-12T15:25:23.507Z,29.80
2023-02-12T15:27:56.800Z,69.20
2023-02-12T15:30:28.241Z,60.20
2023-02-12T15:32:58.900Z,43.90
2023-02-12T15:35:30.608Z,29.90
2023-02-12T15:38:03.520Z,26.50
2023-02-12T15:40:32.061Z,41.00
2023-02-12T15:43:17.143Z,43.80
2023-02-12T15:45:52.628Z,44.20
2023-02-12T15:48:23.476Z,46.90
2023-02-12T15:51:13.702Z,37.80
2023-02-12T15:53:42.780Z,30.50
2023-02-12T15:56:16.003Z,29.90
2023-02-12T15:58:54.909Z,28.40
2023-02-12T16:01:29.204Z,32.10
2023-02-12T16:04:00.632Z,40.90
2023-02-12T16:06:34.302Z,41.80
2023-02-12T16:09:08.460Z,42.60
2023-02-12T16:11:38.139Z,42.70
2023-02-12T16:14:19.040Z,44.70
2023-02-12T16:16:50.187Z,45.60
2023-02-12T16:19:20.939Z,45.40
2023-02-12T16:22:08.871Z,45.60
2023-02-12T16:24:45.903Z,44.70
2023-02-12T16:27:34.186Z,44.10
2023-02-12T16:30:23.698Z,41.90
